Terminal Aerodrome Forecast
Issued by NWS Charleston, WV

Home | Current Version | Previous Version | Text Only | Print | Product List | Glossary On
Versions: 1 2 3 4 5 6 7 8 9 10 11 12 13 14 15 16 17 18 19 20 21 22 23 24 25 26 27
000
FTUS41 KRLX 180917 AAB
TAFEKN
TAF AMD
KEKN 180917Z 1809/1906 17004KT 6SM BR HZ FU OVC015
      TEMPO 1809/1813 5SM BR HZ FU
     FM181300 19006KT P6SM SCT015
      TEMPO 1813/1815 BKN015
     FM181700 24010G15KT P6SM SKC
     FM182200 25068KT P6SM SKC=

USA.gov is the U.S. government's official web portal to all federal, state and local government web resources and services.